Current Weather

Mc Guire Fld (Joint Base Mc Guire Dix Lakehurst)

Wrightstown, New Jersey (KWRI)

Report from: Monday, July 22, 2024 4:55 AM EDT
Current time: Monday, July 22, 2024 5:59 AM EDT

Nearby weather – Weather history – Daily summaries
Weather forecast

Temperature20.9°C (69.6°F)
Dew point19.4°C (66.9°F)
Winds Calm
Visibility10 mi. (16.1 km)
Clouds Sky clear
Altimeter30.06 in.Hg (1018 mB)
Precip last 3 hoursTrace
Relative humidity91 %
Density altitude841 ft. (256 m)
Sea-level pressure101.8 kPa (1018 mB, 30.06 in.Hg)
Remarks Fully automated report
System requires maintenance
Automated weather observing station with precipitation discriminator
Pressure falling, then rising
Flight conditions Visual Meteorological Conditions
Raw dataKWRI 220855Z AUTO 00000KT 10SM CLR 21/19 A3006 RMK AO2 SLP178 60000 T02090194 55005 $
An error has occurred. This application may no longer respond until reloaded. Reload 🗙